KGJT/GJT METAR and TAF weather

Enter ICAO airport designator
Station Type Date Time Source
KGJT METAR 2020/03/28 13:53 UTC NOAA

KGJT 281353Z 07004KT 10SM CLR M03/M06 A3007 RMK AO2 SLP196 T10281056


Station Type Date Time Source
KGJT Decoded METAR 2020/03/28 13:53 UTC NOAA

GRAND JUNCTION WALKER FIELD, CO, United States (KGJT) 39-08N 108-32W 1452M
Mar 28, 2020 - 09:53 AM EDT / 2020.03.28 1353 UTC
Wind: from the ENE (070 degrees) at 5 MPH (4 KT):0
Visibility: 10 mile(s):0
Sky conditions: clear
Temperature: 27.0 F (-2.8 C)
Windchill: 21 F (-6 C):1
Dew Point: 21.9 F (-5.6 C)
Relative Humidity: 81%
Pressure (altimeter): 30.07 in. Hg (1018 hPa)
ob: KGJT 281353Z 07004KT 10SM CLR M03/M06 A3007 RMK AO2 SLP196 T10281056
cycle: 14

Station Type Date Time Source
KGJT TAF 2020/03/28 12:22 UTC NOAA

TAF KGJT 281120Z 2812/2912 34005KT P6SM BKN060
FM281500 VRB06KT P6SM SCT060
FM282000 30008KT P6SM SCT070
FM290400 04005KT P6SM FEW070 FEW100

Example: see airport list